Portada
METAR-TAF:

METAR-TAF

Aeroports :

Aeroport de Berlín-Tegel

Berlín, Alemanya

latitud: 52-34N, longitud: 013-19E, altitud: 37 m

Observació

L'informe es va fer fa 19 minuts, a les 04:20 UTC
Vent 2 kt del Oest
Temperatura 8°C
Humitat 93%
Pressió 1024 hPa
Visibilitat 10 km o més
Escasses núvols a una alçada de 3700 ft

METAR: EDDT 210420Z 27002KT 9999 FEW037 08/07 Q1024 NOSIG

Hora: 06:39 (04:39 UTC)

Pronòstic

L'informe es va fer fa 5 hores i 39 minuts, a les 23:00 UTC
Pronòstic vàlid del 21 a les 00 UTC al 21 a les 24 UTC
Vent 3 kt amb direcció variable
Visibilitat 10 km o més
Núvols disperses a una alçada de 4500 ft
Evolucionant progressivament
l' 21 a les 04 UTC al 21 a les 07 UTC
Vent 5 kt del Oest/Sud-Oest
Evolucionant progressivament
l' 21 a les 15 UTC al 21 a les 18 UTC
Vent 3 kt amb direcció variable

TAF: EDDT 202300Z 2100/2124 VRB03KT 9999 SCT045 BECMG 2104/2107 25005KT BECMG 2115/2118 VRB03KT

Observacions i pronòstics meteorològics de més de 4000 aeroports (METAR i TAF).

Les estacions disponibles són els punts grocs i vermells al mapa.

Posi el ratolí al punt desitjat per veure el nom de l'estació.

Feu clic per veure les observacions i els pronòstics meteorològics.

Per canviar el mapa: feu clic els botons verds amb una creu de color negre per apropar; al botó verd amb un guió per allunyar la imatge; o en les fletxes verdes per a mapes adjacents.


METAR-TAF: